createdAt,value
2024-04-30T00:01:01.195Z,100605.00
2024-04-30T00:03:41.386Z,100597.80
2024-04-30T00:06:10.102Z,100598.20
2024-04-30T00:08:38.414Z,100599.20
2024-04-30T00:11:06.480Z,100594.80
2024-04-30T00:13:34.410Z,100598.20
2024-04-30T00:16:03.551Z,100591.00
2024-04-30T00:18:31.127Z,100589.80
2024-04-30T00:20:59.232Z,100581.00
2024-04-30T00:23:26.751Z,100581.20
2024-04-30T00:25:54.290Z,100584.20
2024-04-30T00:28:21.844Z,100584.40
2024-04-30T00:30:49.454Z,100582.80
2024-04-30T00:33:17.092Z,100580.00
2024-04-30T00:35:44.729Z,100581.60
2024-04-30T00:38:12.302Z,100579.60
2024-04-30T00:40:39.945Z,100579.00
2024-04-30T00:43:07.574Z,100571.80
2024-04-30T00:45:35.251Z,100568.40
2024-04-30T00:48:05.546Z,100559.60
2024-04-30T00:50:34.157Z,100559.00
2024-04-30T00:53:02.944Z,100554.40
2024-04-30T00:55:30.809Z,100551.20
2024-04-30T00:57:58.740Z,100547.60
2024-04-30T01:00:26.286Z,100548.20
2024-04-30T01:02:53.861Z,100542.20
2024-04-30T01:05:21.477Z,100543.20
2024-04-30T01:07:49.107Z,100539.00
2024-04-30T01:10:17.640Z,100534.40
2024-04-30T01:12:45.359Z,100531.60
2024-04-30T01:15:13.803Z,100531.60
2024-04-30T01:17:41.370Z,100533.00
2024-04-30T01:20:11.022Z,100534.00
2024-04-30T01:22:42.987Z,100530.60
2024-04-30T01:25:10.680Z,100527.80
2024-04-30T01:27:38.317Z,100525.80
2024-04-30T01:30:07.604Z,100525.80
2024-04-30T01:32:35.393Z,100521.60
2024-04-30T01:35:03.167Z,100518.00
2024-04-30T01:37:30.942Z,100519.40
2024-04-30T01:39:58.741Z,100519.00
2024-04-30T01:42:26.293Z,100514.40
2024-04-30T01:44:53.833Z,100513.40
2024-04-30T01:47:21.681Z,100509.40
2024-04-30T01:49:49.258Z,100502.20
2024-04-30T01:52:16.825Z,100503.00
2024-04-30T01:54:44.598Z,100496.20
2024-04-30T01:57:12.250Z,100494.40
2024-04-30T01:59:44.160Z,100498.40
2024-04-30T02:02:12.038Z,100497.40
2024-04-30T02:04:46.443Z,100490.20
2024-04-30T02:07:17.297Z,100492.60
2024-04-30T02:09:45.054Z,100493.80
2024-04-30T02:12:12.690Z,100490.40
2024-04-30T02:14:40.491Z,100493.00
2024-04-30T02:17:08.302Z,100488.60
2024-04-30T02:19:35.974Z,100491.00
2024-04-30T02:22:03.841Z,100492.40
2024-04-30T02:24:31.422Z,100497.00
2024-04-30T02:26:58.956Z,100492.00
2024-04-30T02:29:26.773Z,100485.20
2024-04-30T02:32:13.296Z,100484.80
2024-04-30T02:34:40.871Z,100486.60
2024-04-30T02:37:08.468Z,100481.60
2024-04-30T02:39:36.150Z,100480.60
2024-04-30T02:42:03.980Z,100478.80
2024-04-30T02:44:34.398Z,100478.40
2024-04-30T02:47:02.695Z,100475.60
2024-04-30T02:49:30.500Z,100476.00
2024-04-30T02:51:58.216Z,100475.20
2024-04-30T02:54:25.741Z,100468.00
2024-04-30T02:56:53.269Z,100469.80
2024-04-30T02:59:20.794Z,100465.00
2024-04-30T03:01:48.408Z,100465.20
2024-04-30T03:04:16.133Z,100463.60
2024-04-30T03:06:43.808Z,100455.60
2024-04-30T03:09:11.357Z,100455.40
2024-04-30T03:11:46.047Z,100454.20
2024-04-30T03:14:13.801Z,100452.60
2024-04-30T03:16:44.953Z,100453.20
2024-04-30T03:19:12.568Z,100450.60
2024-04-30T03:21:40.221Z,100448.00
2024-04-30T03:24:08.196Z,100449.40
2024-04-30T03:26:43.246Z,100449.40
2024-04-30T03:29:10.859Z,100442.60
2024-04-30T03:31:38.441Z,100442.40
2024-04-30T03:34:06.238Z,100441.40
2024-04-30T03:36:33.833Z,100439.60
2024-04-30T03:39:01.603Z,100439.40
2024-04-30T03:41:29.224Z,100438.20
2024-04-30T03:43:56.745Z,100436.40
2024-04-30T03:46:24.442Z,100432.80
2024-04-30T03:48:52.002Z,100431.60
2024-04-30T03:51:19.820Z,100427.20
2024-04-30T03:53:47.979Z,100425.20
2024-04-30T03:56:15.734Z,100428.00
2024-04-30T03:58:43.313Z,100428.00
2024-04-30T04:01:11.041Z,100425.20
2024-04-30T04:03:38.758Z,100425.40
2024-04-30T04:06:06.474Z,100423.20
2024-04-30T04:08:34.000Z,100419.00
2024-04-30T04:11:20.114Z,100418.20
2024-04-30T04:14:06.386Z,100419.80
2024-04-30T04:16:34.105Z,100414.40
2024-04-30T04:19:01.832Z,100411.40
2024-04-30T04:21:29.472Z,100410.60
2024-04-30T04:23:57.022Z,100411.80
2024-04-30T04:26:24.599Z,100412.40
2024-04-30T04:28:52.183Z,100411.60
2024-04-30T04:31:19.761Z,100406.20
2024-04-30T04:33:47.316Z,100402.80
2024-04-30T04:36:16.143Z,100402.80
2024-04-30T04:38:43.923Z,100398.20
2024-04-30T04:41:11.516Z,100392.80
2024-04-30T04:43:39.109Z,100393.20
2024-04-30T04:46:06.881Z,100387.80
2024-04-30T04:48:34.577Z,100389.60
2024-04-30T04:51:02.238Z,100384.20
2024-04-30T04:53:29.758Z,100382.80
2024-04-30T04:55:57.979Z,100384.60
2024-04-30T04:58:25.645Z,100383.40
2024-04-30T05:00:53.262Z,100386.60
2024-04-30T05:03:20.874Z,100379.20
2024-04-30T05:05:48.451Z,100377.20
2024-04-30T05:08:16.008Z,100381.60
2024-04-30T05:10:43.749Z,100382.60
2024-04-30T05:13:11.396Z,100376.60
2024-04-30T05:15:39.057Z,100374.00
2024-04-30T05:18:06.734Z,100380.60
2024-04-30T05:20:34.273Z,100379.00
2024-04-30T05:23:02.011Z,100373.80
2024-04-30T05:25:29.759Z,100373.60
2024-04-30T05:27:57.403Z,100382.40
2024-04-30T05:30:25.364Z,100373.20
2024-04-30T05:32:52.991Z,100377.80
2024-04-30T05:35:20.649Z,100375.80
2024-04-30T05:37:48.430Z,100377.80
2024-04-30T05:40:16.004Z,100376.60
2024-04-30T05:42:43.568Z,100378.80
2024-04-30T05:45:12.837Z,100380.60
2024-04-30T05:47:40.649Z,100381.40
2024-04-30T05:50:08.230Z,100380.40
2024-04-30T05:52:35.850Z,100384.40
2024-04-30T05:55:03.667Z,100385.20
2024-04-30T05:57:31.319Z,100381.40
2024-04-30T05:59:58.834Z,100383.00
2024-04-30T06:02:26.400Z,100384.20
2024-04-30T06:04:54.042Z,100380.60
2024-04-30T06:07:21.755Z,100376.00
2024-04-30T06:09:49.644Z,100379.40
2024-04-30T06:12:17.263Z,100378.00
2024-04-30T06:14:45.002Z,100375.80
2024-04-30T06:17:12.674Z,100371.20
2024-04-30T06:19:40.331Z,100371.60
2024-04-30T06:22:08.145Z,100368.80
2024-04-30T06:24:35.844Z,100365.20
2024-04-30T06:27:03.849Z,100367.60
2024-04-30T06:29:31.406Z,100364.60
2024-04-30T06:31:58.996Z,100365.20
2024-04-30T06:34:26.701Z,100367.20
2024-04-30T06:36:54.256Z,100369.00
2024-04-30T06:39:22.896Z,100362.40
2024-04-30T06:41:50.534Z,100361.80
2024-04-30T06:44:18.088Z,100365.40
2024-04-30T06:46:45.676Z,100368.40
2024-04-30T06:49:13.350Z,100369.40
2024-04-30T06:51:41.435Z,100363.80
2024-04-30T06:54:09.074Z,100361.80
2024-04-30T06:56:36.706Z,100366.20
2024-04-30T06:59:04.270Z,100369.40
2024-04-30T07:01:31.878Z,100368.80
2024-04-30T07:03:59.484Z,100369.00
2024-04-30T07:06:27.163Z,100367.00
2024-04-30T07:08:54.690Z,100363.00
2024-04-30T07:11:22.339Z,100370.20
2024-04-30T07:13:50.015Z,100364.80
2024-04-30T07:16:17.647Z,100368.20
2024-04-30T07:18:46.342Z,100362.20
2024-04-30T07:21:13.955Z,100360.00
2024-04-30T07:23:41.554Z,100359.40
2024-04-30T07:26:09.070Z,100366.80
2024-04-30T07:28:36.840Z,100367.60
2024-04-30T07:31:04.620Z,100366.20
2024-04-30T07:33:32.228Z,100364.80
2024-04-30T07:35:59.785Z,100365.80
2024-04-30T07:38:27.386Z,100362.60
2024-04-30T07:40:55.497Z,100355.80
2024-04-30T07:43:23.087Z,100363.20
2024-04-30T07:45:50.649Z,100359.80
2024-04-30T07:48:18.295Z,100362.60
2024-04-30T07:50:45.963Z,100360.60
2024-04-30T07:53:13.510Z,100355.40
2024-04-30T07:55:41.320Z,100355.20
2024-04-30T07:58:08.990Z,100351.20
2024-04-30T08:00:36.618Z,100355.20
2024-04-30T08:03:04.629Z,100350.20
2024-04-30T08:05:41.975Z,100349.00
2024-04-30T08:08:13.448Z,100346.60
2024-04-30T08:10:41.752Z,100344.00
2024-04-30T08:13:09.435Z,100344.80
2024-04-30T08:15:37.078Z,100345.20
2024-04-30T08:18:05.148Z,100346.00
2024-04-30T08:20:32.885Z,100339.20
2024-04-30T08:23:00.470Z,100338.00
2024-04-30T08:25:28.025Z,100339.00
2024-04-30T08:27:55.521Z,100339.40
2024-04-30T08:30:23.116Z,100338.00
2024-04-30T08:32:51.226Z,100337.20
2024-04-30T08:35:18.873Z,100335.40
2024-04-30T08:37:54.042Z,100327.40
2024-04-30T08:40:26.049Z,100338.60
2024-04-30T08:42:53.808Z,100332.60
2024-04-30T08:45:26.449Z,100329.40
2024-04-30T08:47:58.368Z,100328.60
2024-04-30T08:50:28.120Z,100323.20
2024-04-30T08:52:57.318Z,100315.20
2024-04-30T08:55:26.339Z,100308.80
2024-04-30T08:57:54.030Z,100311.40
2024-04-30T09:00:21.558Z,100307.00
2024-04-30T09:02:53.879Z,100304.80
2024-04-30T09:05:23.060Z,100305.80
2024-04-30T09:07:50.789Z,100298.60
2024-04-30T09:10:18.391Z,100300.80
2024-04-30T09:12:45.960Z,100299.60
2024-04-30T09:15:18.189Z,100303.60
2024-04-30T09:17:45.872Z,100302.80
2024-04-30T09:20:13.623Z,100297.00
2024-04-30T09:22:46.951Z,100295.20
2024-04-30T09:25:16.175Z,100295.40
2024-04-30T09:27:44.956Z,100287.80
2024-04-30T09:30:21.742Z,100287.20
2024-04-30T09:32:49.978Z,100286.20
2024-04-30T09:35:28.395Z,100284.40
2024-04-30T09:38:01.406Z,100287.60
2024-04-30T09:40:32.355Z,100288.60
2024-04-30T09:43:01.306Z,100287.80
2024-04-30T09:45:31.951Z,100283.80
2024-04-30T09:48:08.833Z,100277.60
2024-04-30T09:50:38.457Z,100279.80
2024-04-30T09:53:07.789Z,100283.00
2024-04-30T09:55:38.053Z,100280.20
2024-04-30T09:58:07.135Z,100283.20
2024-04-30T10:00:34.947Z,100275.20
2024-04-30T10:03:09.976Z,100274.00
2024-04-30T10:05:45.067Z,100266.00
2024-04-30T10:08:15.543Z,100267.00
2024-04-30T10:10:43.300Z,100263.40
2024-04-30T10:13:23.556Z,100262.20
2024-04-30T10:15:51.290Z,100265.00
2024-04-30T10:18:23.629Z,100264.40
2024-04-30T10:20:51.523Z,100265.80
2024-04-30T10:23:32.823Z,100269.80
2024-04-30T10:26:07.422Z,100262.20
2024-04-30T10:28:37.489Z,100257.40
2024-04-30T10:31:13.098Z,100253.60
2024-04-30T10:33:41.068Z,100256.20
2024-04-30T10:36:11.000Z,100249.80
2024-04-30T10:38:42.324Z,100246.00
2024-04-30T10:41:10.813Z,100245.80
2024-04-30T10:43:38.445Z,100243.20
2024-04-30T10:46:32.277Z,100242.00
2024-04-30T10:48:59.856Z,100235.00
2024-04-30T10:51:27.514Z,100228.60
2024-04-30T10:53:58.163Z,100227.80
2024-04-30T10:56:25.949Z,100220.40
2024-04-30T10:58:58.791Z,100218.20
2024-04-30T11:01:30.179Z,100217.00
2024-04-30T11:04:18.137Z,100211.20
2024-04-30T11:06:48.092Z,100208.20
2024-04-30T11:09:16.338Z,100205.80
2024-04-30T11:11:49.825Z,100209.40
2024-04-30T11:14:19.143Z,100201.40
2024-04-30T11:16:47.924Z,100203.40
2024-04-30T11:19:16.019Z,100197.40
2024-04-30T11:21:44.470Z,100200.20
2024-04-30T11:24:12.028Z,100197.00
2024-04-30T11:26:39.701Z,100190.00
2024-04-30T11:31:37.922Z,100189.00
2024-04-30T11:34:06.030Z,100186.80
2024-04-30T11:36:33.799Z,100182.20
2024-04-30T11:39:01.369Z,100183.00
2024-04-30T11:41:28.974Z,100179.60
2024-04-30T11:43:58.366Z,100176.60
2024-04-30T11:46:25.999Z,100177.80
2024-04-30T11:48:53.805Z,100169.60
2024-04-30T11:51:21.617Z,100173.40
2024-04-30T11:53:49.394Z,100171.40
2024-04-30T11:56:16.994Z,100163.20
2024-04-30T11:58:44.713Z,100160.80
2024-04-30T12:01:12.538Z,100157.80
2024-04-30T12:03:40.079Z,100158.60
2024-04-30T12:06:07.637Z,100156.00
2024-04-30T12:08:38.092Z,100153.40
2024-04-30T12:11:05.723Z,100157.80
2024-04-30T12:13:35.848Z,100156.40
2024-04-30T12:16:04.154Z,100152.00
2024-04-30T12:18:32.084Z,100143.80
2024-04-30T12:20:59.727Z,100143.40
2024-04-30T12:23:27.374Z,100140.20
2024-04-30T12:25:55.800Z,100146.40
2024-04-30T12:28:23.367Z,100136.80
2024-04-30T12:30:51.129Z,100136.40
2024-04-30T12:33:20.441Z,100133.60
2024-04-30T12:35:49.101Z,100131.80
2024-04-30T12:38:16.969Z,100128.20
2024-04-30T12:40:45.630Z,100117.60
2024-04-30T12:43:13.626Z,100120.00
2024-04-30T12:45:41.835Z,100111.80
2024-04-30T12:48:09.630Z,100119.00
2024-04-30T12:50:37.256Z,100111.20
2024-04-30T12:53:04.852Z,100109.80
2024-04-30T12:55:35.042Z,100105.20
2024-04-30T12:58:03.200Z,100107.60
2024-04-30T13:00:30.747Z,100102.00
2024-04-30T13:02:58.457Z,100102.00
2024-04-30T13:05:27.014Z,100095.60
2024-04-30T13:07:54.687Z,100100.60
2024-04-30T13:10:22.401Z,100102.00
2024-04-30T13:12:49.955Z,100098.40
2024-04-30T13:15:17.625Z,100094.20
2024-04-30T13:17:45.267Z,100092.40
2024-04-30T13:20:13.050Z,100097.80
2024-04-30T13:22:40.654Z,100090.40
2024-04-30T13:25:08.338Z,100087.60
2024-04-30T13:27:35.885Z,100082.80
2024-04-30T13:30:03.888Z,100080.80
2024-04-30T13:32:31.457Z,100087.60
2024-04-30T13:34:59.021Z,100072.60
2024-04-30T13:37:26.586Z,100067.20
2024-04-30T13:39:54.201Z,100066.60
2024-04-30T13:42:21.886Z,100069.40
2024-04-30T13:44:50.033Z,100072.40
2024-04-30T13:47:17.932Z,100062.40
2024-04-30T13:49:47.380Z,100058.20
2024-04-30T13:52:15.054Z,100062.20
2024-04-30T13:54:42.656Z,100060.20
2024-04-30T13:57:10.209Z,100055.00
2024-04-30T13:59:37.819Z,100052.20
2024-04-30T14:02:08.411Z,100053.00
2024-04-30T14:04:36.379Z,100051.20
2024-04-30T14:07:04.250Z,100051.20
2024-04-30T14:09:33.818Z,100056.00
2024-04-30T14:12:02.949Z,100052.60
2024-04-30T14:14:30.815Z,100046.20
2024-04-30T14:16:58.380Z,100046.20
2024-04-30T14:19:26.144Z,100042.40
2024-04-30T14:21:53.749Z,100035.80
2024-04-30T14:24:21.425Z,100030.00
2024-04-30T14:26:50.506Z,100029.80
2024-04-30T14:29:19.506Z,100027.80
2024-04-30T14:31:47.104Z,100026.80
2024-04-30T14:34:14.820Z,100028.60
2024-04-30T14:36:44.966Z,100022.40
2024-04-30T14:39:12.951Z,100020.80
2024-04-30T14:41:42.556Z,100033.00
2024-04-30T14:44:13.939Z,100026.60
2024-04-30T14:46:41.946Z,100025.80
2024-04-30T14:49:09.813Z,100020.00
2024-04-30T14:51:40.437Z,100026.00
2024-04-30T14:54:08.615Z,100016.20
2024-04-30T14:56:37.521Z,100023.60
2024-04-30T14:59:05.210Z,100017.60
2024-04-30T15:01:33.001Z,100012.80
2024-04-30T15:04:00.795Z,100010.80
2024-04-30T15:06:29.230Z,100008.20
2024-04-30T15:08:56.948Z,100010.20
2024-04-30T15:11:25.339Z,100008.80
2024-04-30T15:13:53.592Z,100006.20
2024-04-30T15:16:21.418Z,100000.80
2024-04-30T15:18:49.448Z,100005.00
2024-04-30T15:21:17.038Z,100004.00
2024-04-30T15:23:45.487Z,100005.00
2024-04-30T15:26:15.166Z,99998.40
2024-04-30T15:28:43.216Z,99996.40
2024-04-30T15:31:21.512Z,99998.60
2024-04-30T15:33:49.832Z,99997.60
2024-04-30T15:36:17.417Z,99996.40
2024-04-30T15:38:46.193Z,99999.80
2024-04-30T15:41:23.346Z,99998.00
2024-04-30T15:43:51.433Z,100001.80
2024-04-30T15:46:19.308Z,100008.20
2024-04-30T15:48:50.232Z,100006.00
2024-04-30T15:51:19.317Z,100007.00
2024-04-30T15:53:46.951Z,100008.80
2024-04-30T15:56:17.579Z,100007.20
2024-04-30T15:58:47.651Z,100009.40
2024-04-30T16:01:15.775Z,100003.60
2024-04-30T16:03:44.313Z,99998.40
2024-04-30T16:06:12.212Z,100000.80
2024-04-30T16:08:39.775Z,100002.80
2024-04-30T16:11:10.434Z,100000.20
2024-04-30T16:13:40.132Z,99999.40
2024-04-30T16:16:15.435Z,99997.20
2024-04-30T16:18:47.694Z,99994.60
2024-04-30T16:21:16.656Z,99993.40
2024-04-30T16:23:44.500Z,99991.60
2024-04-30T16:26:12.264Z,99999.00
2024-04-30T16:28:43.905Z,99996.60
2024-04-30T16:31:14.707Z,99994.60
2024-04-30T16:33:42.903Z,99991.40
2024-04-30T16:36:20.647Z,99987.60
2024-04-30T16:38:49.812Z,99994.60
2024-04-30T16:41:17.921Z,99994.20
2024-04-30T16:43:45.505Z,99993.20
2024-04-30T16:46:13.144Z,99998.00
2024-04-30T16:48:41.167Z,99991.40
2024-04-30T16:51:14.818Z,99991.40
2024-04-30T16:53:43.148Z,99987.40
2024-04-30T16:56:11.024Z,99987.20
2024-04-30T16:58:38.783Z,99985.80
2024-04-30T17:01:06.896Z,99986.80
2024-04-30T17:03:34.964Z,99985.00
2024-04-30T17:06:11.243Z,99989.80
2024-04-30T17:08:40.012Z,99994.80
2024-04-30T17:11:11.871Z,99994.20
2024-04-30T17:13:44.216Z,99993.80
2024-04-30T17:16:23.511Z,99995.40
2024-04-30T17:18:51.586Z,99993.60
2024-04-30T17:21:22.351Z,99989.80
2024-04-30T17:23:50.250Z,99991.60
2024-04-30T17:26:25.364Z,99997.00
2024-04-30T17:28:54.970Z,99990.00
2024-04-30T17:31:23.952Z,99998.80
2024-04-30T17:33:55.786Z,99994.60
2024-04-30T17:36:23.671Z,99999.80
2024-04-30T17:38:51.391Z,100006.20
2024-04-30T17:41:23.787Z,100004.40
2024-04-30T17:43:51.716Z,100001.60
2024-04-30T17:46:19.829Z,100005.80
2024-04-30T17:48:48.462Z,100005.60
2024-04-30T17:51:16.653Z,100003.20
2024-04-30T17:53:44.223Z,100003.80
2024-04-30T17:56:11.880Z,100007.00
2024-04-30T17:58:40.166Z,100007.80
2024-04-30T18:01:07.846Z,100015.00
2024-04-30T18:03:35.788Z,100016.60
2024-04-30T18:06:03.571Z,100022.00
2024-04-30T18:08:31.148Z,100022.80
2024-04-30T18:10:58.800Z,100023.60
2024-04-30T18:13:26.338Z,100029.60
2024-04-30T18:15:54.208Z,100032.00
2024-04-30T18:18:22.698Z,100030.40
2024-04-30T18:20:50.329Z,100035.60
2024-04-30T18:23:17.954Z,100036.20
2024-04-30T18:25:45.482Z,100038.00
2024-04-30T18:28:13.167Z,100033.00
2024-04-30T18:30:40.703Z,100035.60
2024-04-30T18:33:08.326Z,100041.80
2024-04-30T18:35:35.939Z,100043.60
2024-04-30T18:38:03.581Z,100045.20
2024-04-30T18:40:31.117Z,100046.40
2024-04-30T18:42:58.797Z,100052.20
2024-04-30T18:45:26.374Z,100047.20
2024-04-30T18:47:54.031Z,100049.60
2024-04-30T18:50:21.641Z,100048.80
2024-04-30T18:52:49.529Z,100046.00
2024-04-30T18:55:17.119Z,100045.80
2024-04-30T18:57:45.229Z,100044.00
2024-04-30T19:00:13.182Z,100048.20
2024-04-30T19:02:41.336Z,100051.20
2024-04-30T19:05:08.940Z,100053.20
2024-04-30T19:07:36.573Z,100056.40
2024-04-30T19:10:04.591Z,100053.20
2024-04-30T19:12:32.297Z,100059.00
2024-04-30T19:14:59.854Z,100061.20
2024-04-30T19:17:27.437Z,100056.80
2024-04-30T19:19:55.007Z,100064.00
2024-04-30T19:22:22.568Z,100064.60
2024-04-30T19:24:50.253Z,100064.80
2024-04-30T19:27:19.941Z,100070.80
2024-04-30T19:29:47.551Z,100067.60
2024-04-30T19:32:16.018Z,100073.80
2024-04-30T19:34:43.808Z,100075.00
2024-04-30T19:37:11.389Z,100079.40
2024-04-30T19:39:38.984Z,100078.20
2024-04-30T19:42:06.812Z,100083.40
2024-04-30T19:44:39.148Z,100085.20
2024-04-30T19:47:07.517Z,100085.00
2024-04-30T19:49:35.219Z,100083.40
2024-04-30T19:52:03.372Z,100081.80
2024-04-30T19:54:31.061Z,100082.60
2024-04-30T19:56:59.181Z,100082.60
2024-04-30T19:59:26.800Z,100089.40
2024-04-30T20:01:54.400Z,100092.20
2024-04-30T20:04:21.971Z,100095.00
2024-04-30T20:06:49.730Z,100099.20
2024-04-30T20:09:19.517Z,100096.80
2024-04-30T20:11:47.319Z,100098.40
2024-04-30T20:14:15.156Z,100100.40
2024-04-30T20:16:46.120Z,100096.80
2024-04-30T20:19:13.902Z,100099.40
2024-04-30T20:21:41.556Z,100102.40
2024-04-30T20:24:09.627Z,100103.20
2024-04-30T20:26:37.524Z,100106.60
2024-04-30T20:29:07.882Z,100103.20
2024-04-30T20:31:36.402Z,100106.20
2024-04-30T20:34:05.609Z,100104.00
2024-04-30T20:36:33.178Z,100107.60
2024-04-30T20:39:01.130Z,100108.40
2024-04-30T20:41:28.755Z,100108.20
2024-04-30T20:43:56.542Z,100106.20
2024-04-30T20:46:24.105Z,100102.40
2024-04-30T20:48:51.786Z,100099.60
2024-04-30T20:51:19.701Z,100095.40
2024-04-30T20:53:47.282Z,100097.80
2024-04-30T20:56:14.877Z,100094.00
2024-04-30T20:58:42.438Z,100092.60
2024-04-30T21:01:17.111Z,100093.80
2024-04-30T21:03:44.949Z,100097.00
2024-04-30T21:06:12.629Z,100101.20
2024-04-30T21:08:40.285Z,100093.20
2024-04-30T21:11:14.059Z,100090.60
2024-04-30T21:13:42.301Z,100096.20
2024-04-30T21:16:09.888Z,100093.00
2024-04-30T21:18:37.823Z,100097.80
2024-04-30T21:21:06.073Z,100095.80
2024-04-30T21:23:33.610Z,100097.60
2024-04-30T21:26:01.204Z,100094.00
2024-04-30T21:28:30.073Z,100100.60
2024-04-30T21:30:57.698Z,100105.20
2024-04-30T21:33:25.398Z,100100.00
2024-04-30T21:35:53.554Z,100103.60
2024-04-30T21:38:21.164Z,100104.20
2024-04-30T21:40:48.738Z,100104.80
2024-04-30T21:43:16.315Z,100107.00
2024-04-30T21:45:43.921Z,100104.40
2024-04-30T21:48:11.720Z,100110.60
2024-04-30T21:50:39.311Z,100109.60
2024-04-30T21:53:06.888Z,100110.60
2024-04-30T21:55:34.439Z,100108.40
2024-04-30T21:58:02.053Z,100109.40
2024-04-30T22:00:29.656Z,100104.60
2024-04-30T22:03:02.599Z,100104.40
2024-04-30T22:05:31.270Z,100103.60
2024-04-30T22:07:58.931Z,100106.80
2024-04-30T22:10:26.481Z,100103.20
2024-04-30T22:12:54.155Z,100094.00
2024-04-30T22:15:21.874Z,100097.40
2024-04-30T22:17:50.159Z,100107.20
2024-04-30T22:20:18.036Z,100105.00
2024-04-30T22:22:45.573Z,100103.20
2024-04-30T22:25:13.274Z,100103.40
2024-04-30T22:27:40.859Z,100103.40
2024-04-30T22:30:17.317Z,100085.60
2024-04-30T22:32:49.169Z,100087.00
2024-04-30T22:35:16.937Z,100081.80
2024-04-30T22:37:44.470Z,100084.40
2024-04-30T22:40:12.108Z,100081.20
2024-04-30T22:42:39.755Z,100073.00
2024-04-30T22:45:07.559Z,100066.20
2024-04-30T22:47:35.358Z,100070.20
2024-04-30T22:50:03.297Z,100064.00
2024-04-30T22:52:30.916Z,100059.40
2024-04-30T22:54:58.844Z,100061.00
2024-04-30T22:57:26.570Z,100052.40
2024-04-30T22:59:54.168Z,100053.80
2024-04-30T23:02:22.430Z,100057.40
2024-04-30T23:04:50.384Z,100055.80
2024-04-30T23:07:17.984Z,100058.60
2024-04-30T23:09:45.588Z,100063.60
2024-04-30T23:12:13.214Z,100059.60
2024-04-30T23:14:40.779Z,100063.80
2024-04-30T23:17:08.359Z,100067.60
2024-04-30T23:19:35.934Z,100059.40
2024-04-30T23:22:03.777Z,100065.80
2024-04-30T23:24:31.538Z,100060.40
2024-04-30T23:26:59.170Z,100051.00
2024-04-30T23:29:28.102Z,100049.60
2024-04-30T23:31:56.195Z,100045.80
2024-04-30T23:34:23.939Z,100046.80
2024-04-30T23:36:53.728Z,100050.80
2024-04-30T23:39:21.554Z,100054.20
2024-04-30T23:41:49.347Z,100051.20
2024-04-30T23:44:16.897Z,100054.20
2024-04-30T23:46:44.470Z,100053.20
2024-04-30T23:49:12.124Z,100057.20
2024-04-30T23:51:39.733Z,100062.40
2024-04-30T23:54:07.321Z,100054.80
2024-04-30T23:56:34.863Z,100059.60
2024-04-30T23:59:02.415Z,100059.20
